sensor_id;sensor_type;location;lat;lon;timestamp;temperature;humidity
20921;DHT22;10620;52.472;21.028;2022-08-21T00:01:52;18.80;99.90
20921;DHT22;10620;52.472;21.028;2022-08-21T00:04:21;18.80;99.90
20921;DHT22;10620;52.472;21.028;2022-08-21T00:06:57;18.70;99.90
20921;DHT22;10620;52.472;21.028;2022-08-21T00:09:26;18.70;99.90
20921;DHT22;10620;52.472;21.028;2022-08-21T00:11:55;18.60;99.90
20921;DHT22;10620;52.472;21.028;2022-08-21T00:14:23;18.60;99.90
20921;DHT22;10620;52.472;21.028;2022-08-21T00:16:58;18.60;99.90
20921;DHT22;10620;52.472;21.028;2022-08-21T00:19:27;18.60;99.90
20921;DHT22;10620;52.472;21.028;2022-08-21T00:21:57;18.50;99.90
20921;DHT22;10620;52.472;21.028;2022-08-21T00:24:26;18.50;99.90
20921;DHT22;10620;52.472;21.028;2022-08-21T00:26:55;18.50;99.90
20921;DHT22;10620;52.472;21.028;2022-08-21T00:29:24;18.50;99.90
20921;DHT22;10620;52.472;21.028;2022-08-21T00:31:52;18.50;99.90
20921;DHT22;10620;52.472;21.028;2022-08-21T00:34:21;18.40;99.90
20921;DHT22;10620;52.472;21.028;2022-08-21T00:36:50;18.40;99.90
20921;DHT22;10620;52.472;21.028;2022-08-21T00:39:20;18.40;99.90
20921;DHT22;10620;52.472;21.028;2022-08-21T00:41:48;18.40;99.90
20921;DHT22;10620;52.472;21.028;2022-08-21T00:44:17;18.30;99.90
20921;DHT22;10620;52.472;21.028;2022-08-21T00:46:46;18.30;99.90
20921;DHT22;10620;52.472;21.028;2022-08-21T00:49:14;18.30;99.90
20921;DHT22;10620;52.472;21.028;2022-08-21T00:51:44;18.20;99.90
20921;DHT22;10620;52.472;21.028;2022-08-21T00:54:15;18.20;99.90
20921;DHT22;10620;52.472;21.028;2022-08-21T00:56:48;18.10;99.90
20921;DHT22;10620;52.472;21.028;2022-08-21T00:59:18;18.10;99.90
20921;DHT22;10620;52.472;21.028;2022-08-21T01:01:47;18.10;99.90
20921;DHT22;10620;52.472;21.028;2022-08-21T01:04:16;18.10;99.90
20921;DHT22;10620;52.472;21.028;2022-08-21T01:06:45;18.10;99.90
20921;DHT22;10620;52.472;21.028;2022-08-21T01:09:14;18.20;99.90
20921;DHT22;10620;52.472;21.028;2022-08-21T01:11:42;18.20;99.90
20921;DHT22;10620;52.472;21.028;2022-08-21T01:14:13;18.20;99.90
20921;DHT22;10620;52.472;21.028;2022-08-21T01:16:43;18.20;99.90
20921;DHT22;10620;52.472;21.028;2022-08-21T01:19:13;18.20;99.90
20921;DHT22;10620;52.472;21.028;2022-08-21T01:21:43;18.10;99.90
20921;DHT22;10620;52.472;21.028;2022-08-21T01:24:12;18.10;99.90
20921;DHT22;10620;52.472;21.028;2022-08-21T01:26:41;18.00;99.90
20921;DHT22;10620;52.472;21.028;2022-08-21T01:29:11;17.90;99.90
20921;DHT22;10620;52.472;21.028;2022-08-21T01:31:43;17.80;99.90
20921;DHT22;10620;52.472;21.028;2022-08-21T01:34:12;17.70;99.90
20921;DHT22;10620;52.472;21.028;2022-08-21T01:36:44;17.70;99.90
20921;DHT22;10620;52.472;21.028;2022-08-21T01:39:14;17.60;99.90
20921;DHT22;10620;52.472;21.028;2022-08-21T01:41:43;17.50;99.90
20921;DHT22;10620;52.472;21.028;2022-08-21T01:44:11;17.40;99.90
20921;DHT22;10620;52.472;21.028;2022-08-21T01:46:40;17.40;99.90
20921;DHT22;10620;52.472;21.028;2022-08-21T01:49:09;17.30;99.90
20921;DHT22;10620;52.472;21.028;2022-08-21T01:51:37;17.30;99.90
20921;DHT22;10620;52.472;21.028;2022-08-21T01:54:07;17.60;99.90
20921;DHT22;10620;52.472;21.028;2022-08-21T01:56:37;17.20;99.90
20921;DHT22;10620;52.472;21.028;2022-08-21T01:59:06;17.10;99.90
20921;DHT22;10620;52.472;21.028;2022-08-21T02:01:35;17.10;99.90
20921;DHT22;10620;52.472;21.028;2022-08-21T02:04:03;17.10;99.90
20921;DHT22;10620;52.472;21.028;2022-08-21T02:06:32;17.10;99.90
20921;DHT22;10620;52.472;21.028;2022-08-21T02:09:02;17.00;99.90
20921;DHT22;10620;52.472;21.028;2022-08-21T02:11:34;17.00;99.90
20921;DHT22;10620;52.472;21.028;2022-08-21T02:14:03;16.90;99.90
20921;DHT22;10620;52.472;21.028;2022-08-21T02:16:31;17.00;99.90
20921;DHT22;10620;52.472;21.028;2022-08-21T02:19:00;16.90;99.90
20921;DHT22;10620;52.472;21.028;2022-08-21T02:21:29;16.90;99.90
20921;DHT22;10620;52.472;21.028;2022-08-21T02:23:58;16.80;99.90
20921;DHT22;10620;52.472;21.028;2022-08-21T02:26:27;16.80;99.90
20921;DHT22;10620;52.472;21.028;2022-08-21T02:28:57;16.70;99.90
20921;DHT22;10620;52.472;21.028;2022-08-21T02:31:25;16.70;99.90
20921;DHT22;10620;52.472;21.028;2022-08-21T02:33:54;16.80;99.90
20921;DHT22;10620;52.472;21.028;2022-08-21T02:36:23;16.80;99.90
20921;DHT22;10620;52.472;21.028;2022-08-21T02:38:51;16.80;99.90
20921;DHT22;10620;52.472;21.028;2022-08-21T02:41:21;16.70;99.90
20921;DHT22;10620;52.472;21.028;2022-08-21T02:43:50;16.80;99.90
20921;DHT22;10620;52.472;21.028;2022-08-21T02:46:20;16.80;99.90
20921;DHT22;10620;52.472;21.028;2022-08-21T02:48:49;16.80;99.90
20921;DHT22;10620;52.472;21.028;2022-08-21T02:51:18;16.80;99.90
20921;DHT22;10620;52.472;21.028;2022-08-21T02:53:49;16.80;99.90
20921;DHT22;10620;52.472;21.028;2022-08-21T02:56:19;16.80;99.90
20921;DHT22;10620;52.472;21.028;2022-08-21T02:58:49;16.80;99.90
20921;DHT22;10620;52.472;21.028;2022-08-21T03:01:19;16.80;99.90
20921;DHT22;10620;52.472;21.028;2022-08-21T03:03:49;16.80;99.90
20921;DHT22;10620;52.472;21.028;2022-08-21T03:06:18;16.80;99.90
20921;DHT22;10620;52.472;21.028;2022-08-21T03:08:47;16.80;99.90
20921;DHT22;10620;52.472;21.028;2022-08-21T03:11:16;16.80;99.90
20921;DHT22;10620;52.472;21.028;2022-08-21T03:13:47;16.80;99.90
20921;DHT22;10620;52.472;21.028;2022-08-21T03:16:15;16.70;99.90
20921;DHT22;10620;52.472;21.028;2022-08-21T03:18:47;16.70;99.90
20921;DHT22;10620;52.472;21.028;2022-08-21T03:21:16;16.70;99.90
20921;DHT22;10620;52.472;21.028;2022-08-21T03:23:46;16.70;99.90
20921;DHT22;10620;52.472;21.028;2022-08-21T03:26:16;16.70;99.90
20921;DHT22;10620;52.472;21.028;2022-08-21T03:28:46;16.60;99.90
20921;DHT22;10620;52.472;21.028;2022-08-21T03:31:14;16.60;99.90
20921;DHT22;10620;52.472;21.028;2022-08-21T03:33:44;16.60;99.90
20921;DHT22;10620;52.472;21.028;2022-08-21T03:36:15;16.70;99.90
20921;DHT22;10620;52.472;21.028;2022-08-21T03:38:43;16.70;99.90
20921;DHT22;10620;52.472;21.028;2022-08-21T03:41:12;16.70;99.90
20921;DHT22;10620;52.472;21.028;2022-08-21T03:43:41;16.70;99.90
20921;DHT22;10620;52.472;21.028;2022-08-21T03:46:10;16.80;99.90
20921;DHT22;10620;52.472;21.028;2022-08-21T03:48:39;16.90;99.90
20921;DHT22;10620;52.472;21.028;2022-08-21T03:51:07;17.00;99.90
20921;DHT22;10620;52.472;21.028;2022-08-21T03:53:37;17.10;99.90
20921;DHT22;10620;52.472;21.028;2022-08-21T03:56:06;17.20;99.90
20921;DHT22;10620;52.472;21.028;2022-08-21T03:58:35;17.30;99.90
20921;DHT22;10620;52.472;21.028;2022-08-21T04:01:04;17.40;99.90
20921;DHT22;10620;52.472;21.028;2022-08-21T04:03:34;17.50;99.90
20921;DHT22;10620;52.472;21.028;2022-08-21T04:06:03;17.60;99.90
20921;DHT22;10620;52.472;21.028;2022-08-21T04:08:33;17.60;99.90
20921;DHT22;10620;52.472;21.028;2022-08-21T04:11:03;17.70;99.90
20921;DHT22;10620;52.472;21.028;2022-08-21T04:13:33;17.80;99.90
20921;DHT22;10620;52.472;21.028;2022-08-21T04:16:10;17.90;99.90
20921;DHT22;10620;52.472;21.028;2022-08-21T04:18:39;18.00;99.90
20921;DHT22;10620;52.472;21.028;2022-08-21T04:21:08;18.10;99.90
20921;DHT22;10620;52.472;21.028;2022-08-21T04:23:39;18.20;99.90
20921;DHT22;10620;52.472;21.028;2022-08-21T04:26:09;18.30;99.90
20921;DHT22;10620;52.472;21.028;2022-08-21T04:28:38;18.40;99.90
20921;DHT22;10620;52.472;21.028;2022-08-21T04:31:07;18.50;99.90
20921;DHT22;10620;52.472;21.028;2022-08-21T04:33:35;18.50;99.90
20921;DHT22;10620;52.472;21.028;2022-08-21T04:36:04;18.60;99.90
20921;DHT22;10620;52.472;21.028;2022-08-21T04:38:34;18.70;99.90
20921;DHT22;10620;52.472;21.028;2022-08-21T04:41:04;18.80;99.90
20921;DHT22;10620;52.472;21.028;2022-08-21T04:43:35;18.80;99.90
20921;DHT22;10620;52.472;21.028;2022-08-21T04:46:03;18.90;99.90
20921;DHT22;10620;52.472;21.028;2022-08-21T04:48:32;19.00;99.90
20921;DHT22;10620;52.472;21.028;2022-08-21T04:51:02;19.10;99.90
20921;DHT22;10620;52.472;21.028;2022-08-21T04:53:33;19.10;99.90
20921;DHT22;10620;52.472;21.028;2022-08-21T04:56:04;19.20;99.90
20921;DHT22;10620;52.472;21.028;2022-08-21T04:58:37;19.20;99.90
20921;DHT22;10620;52.472;21.028;2022-08-21T05:01:07;19.20;99.90
20921;DHT22;10620;52.472;21.028;2022-08-21T05:03:36;19.30;99.90
20921;DHT22;10620;52.472;21.028;2022-08-21T05:06:06;19.30;99.90
20921;DHT22;10620;52.472;21.028;2022-08-21T05:08:35;19.30;99.90
20921;DHT22;10620;52.472;21.028;2022-08-21T05:11:05;19.40;99.90
20921;DHT22;10620;52.472;21.028;2022-08-21T05:13:34;19.50;99.90
20921;DHT22;10620;52.472;21.028;2022-08-21T05:16:05;19.50;99.90
20921;DHT22;10620;52.472;21.028;2022-08-21T05:18:33;19.60;99.90
20921;DHT22;10620;52.472;21.028;2022-08-21T05:21:02;19.60;99.90
20921;DHT22;10620;52.472;21.028;2022-08-21T05:23:32;19.70;99.90
20921;DHT22;10620;52.472;21.028;2022-08-21T05:26:00;19.80;99.90
20921;DHT22;10620;52.472;21.028;2022-08-21T05:28:29;19.90;99.90
20921;DHT22;10620;52.472;21.028;2022-08-21T05:30:58;20.00;99.90
20921;DHT22;10620;52.472;21.028;2022-08-21T05:33:29;20.10;99.90
20921;DHT22;10620;52.472;21.028;2022-08-21T05:36:02;20.20;99.90
20921;DHT22;10620;52.472;21.028;2022-08-21T05:38:30;20.30;99.90
20921;DHT22;10620;52.472;21.028;2022-08-21T05:40:59;20.40;99.90
20921;DHT22;10620;52.472;21.028;2022-08-21T05:43:28;20.60;99.90
20921;DHT22;10620;52.472;21.028;2022-08-21T05:45:57;20.70;99.90
20921;DHT22;10620;52.472;21.028;2022-08-21T05:48:25;20.80;99.90
20921;DHT22;10620;52.472;21.028;2022-08-21T05:50:55;20.90;99.90
20921;DHT22;10620;52.472;21.028;2022-08-21T05:53:24;20.90;99.90
20921;DHT22;10620;52.472;21.028;2022-08-21T05:55:53;21.00;99.90
20921;DHT22;10620;52.472;21.028;2022-08-21T05:58:22;21.00;99.90
20921;DHT22;10620;52.472;21.028;2022-08-21T06:00:51;21.10;99.90
20921;DHT22;10620;52.472;21.028;2022-08-21T06:03:20;21.10;99.90
20921;DHT22;10620;52.472;21.028;2022-08-21T06:05:49;21.10;99.90
20921;DHT22;10620;52.472;21.028;2022-08-21T06:08:20;21.10;99.90
20921;DHT22;10620;52.472;21.028;2022-08-21T06:10:49;21.20;99.90
20921;DHT22;10620;52.472;21.028;2022-08-21T06:13:18;21.20;99.90
20921;DHT22;10620;52.472;21.028;2022-08-21T06:15:48;21.30;99.90
20921;DHT22;10620;52.472;21.028;2022-08-21T06:18:16;21.40;99.90
20921;DHT22;10620;52.472;21.028;2022-08-21T06:20:45;21.60;99.90
20921;DHT22;10620;52.472;21.028;2022-08-21T06:23:14;21.60;99.90
20921;DHT22;10620;52.472;21.028;2022-08-21T06:25:44;21.60;99.90
20921;DHT22;10620;52.472;21.028;2022-08-21T06:28:13;21.70;99.90
20921;DHT22;10620;52.472;21.028;2022-08-21T06:30:42;21.80;99.90
20921;DHT22;10620;52.472;21.028;2022-08-21T06:33:10;21.80;99.90
20921;DHT22;10620;52.472;21.028;2022-08-21T06:35:44;21.90;99.90
20921;DHT22;10620;52.472;21.028;2022-08-21T06:38:13;22.00;99.90
20921;DHT22;10620;52.472;21.028;2022-08-21T06:40:41;22.00;99.90
20921;DHT22;10620;52.472;21.028;2022-08-21T06:43:16;22.10;99.90
20921;DHT22;10620;52.472;21.028;2022-08-21T06:45:45;22.10;99.90
20921;DHT22;10620;52.472;21.028;2022-08-21T06:48:13;22.30;99.90
20921;DHT22;10620;52.472;21.028;2022-08-21T06:50:46;22.30;99.90
20921;DHT22;10620;52.472;21.028;2022-08-21T06:53:16;22.40;99.90
20921;DHT22;10620;52.472;21.028;2022-08-21T06:55:45;22.50;99.90
20921;DHT22;10620;52.472;21.028;2022-08-21T06:58:16;22.60;99.90
20921;DHT22;10620;52.472;21.028;2022-08-21T07:00:45;22.50;99.90
20921;DHT22;10620;52.472;21.028;2022-08-21T07:03:22;22.60;99.90
20921;DHT22;10620;52.472;21.028;2022-08-21T07:05:51;22.60;99.90
20921;DHT22;10620;52.472;21.028;2022-08-21T07:08:19;22.50;99.90
20921;DHT22;10620;52.472;21.028;2022-08-21T07:10:48;22.60;99.90
20921;DHT22;10620;52.472;21.028;2022-08-21T07:13:18;22.70;99.90
20921;DHT22;10620;52.472;21.028;2022-08-21T07:15:47;22.80;99.90
20921;DHT22;10620;52.472;21.028;2022-08-21T07:18:16;22.90;99.90
20921;DHT22;10620;52.472;21.028;2022-08-21T07:20:45;23.10;99.90
20921;DHT22;10620;52.472;21.028;2022-08-21T07:23:16;23.10;99.90
20921;DHT22;10620;52.472;21.028;2022-08-21T07:25:48;23.20;99.90
20921;DHT22;10620;52.472;21.028;2022-08-21T07:28:18;23.30;99.90
20921;DHT22;10620;52.472;21.028;2022-08-21T07:30:49;23.30;99.90
20921;DHT22;10620;52.472;21.028;2022-08-21T07:33:19;23.30;99.90
20921;DHT22;10620;52.472;21.028;2022-08-21T07:35:48;23.40;99.90
20921;DHT22;10620;52.472;21.028;2022-08-21T07:38:16;23.50;99.90
20921;DHT22;10620;52.472;21.028;2022-08-21T07:40:46;23.50;99.90
20921;DHT22;10620;52.472;21.028;2022-08-21T07:43:16;23.60;99.90
20921;DHT22;10620;52.472;21.028;2022-08-21T07:45:47;23.60;99.90
20921;DHT22;10620;52.472;21.028;2022-08-21T07:48:16;23.60;99.90
20921;DHT22;10620;52.472;21.028;2022-08-21T07:50:45;23.60;99.90
20921;DHT22;10620;52.472;21.028;2022-08-21T07:53:14;23.60;99.90
20921;DHT22;10620;52.472;21.028;2022-08-21T07:55:43;23.70;99.90
20921;DHT22;10620;52.472;21.028;2022-08-21T07:58:11;23.80;99.90
20921;DHT22;10620;52.472;21.028;2022-08-21T08:00:40;24.00;99.90
20921;DHT22;10620;52.472;21.028;2022-08-21T08:03:10;24.10;99.90
20921;DHT22;10620;52.472;21.028;2022-08-21T08:05:41;24.20;99.90
20921;DHT22;10620;52.472;21.028;2022-08-21T08:08:10;24.40;99.90
20921;DHT22;10620;52.472;21.028;2022-08-21T08:10:39;24.60;99.90
20921;DHT22;10620;52.472;21.028;2022-08-21T08:13:08;24.70;99.90
20921;DHT22;10620;52.472;21.028;2022-08-21T08:15:37;24.60;99.90
20921;DHT22;10620;52.472;21.028;2022-08-21T08:18:05;24.60;99.90
20921;DHT22;10620;52.472;21.028;2022-08-21T08:20:35;24.80;99.90
20921;DHT22;10620;52.472;21.028;2022-08-21T08:23:04;25.00;99.90
20921;DHT22;10620;52.472;21.028;2022-08-21T08:25:33;25.10;99.90
20921;DHT22;10620;52.472;21.028;2022-08-21T08:28:03;25.10;99.90
20921;DHT22;10620;52.472;21.028;2022-08-21T08:30:43;25.10;99.90
20921;DHT22;10620;52.472;21.028;2022-08-21T08:33:12;25.20;99.90
20921;DHT22;10620;52.472;21.028;2022-08-21T08:35:43;25.10;99.90
20921;DHT22;10620;52.472;21.028;2022-08-21T08:38:13;25.20;99.90
20921;DHT22;10620;52.472;21.028;2022-08-21T08:40:49;25.30;99.90
20921;DHT22;10620;52.472;21.028;2022-08-21T08:43:19;25.40;99.90
20921;DHT22;10620;52.472;21.028;2022-08-21T08:45:50;25.40;99.90
20921;DHT22;10620;52.472;21.028;2022-08-21T08:48:26;25.40;99.90
20921;DHT22;10620;52.472;21.028;2022-08-21T08:51:01;25.40;99.90
20921;DHT22;10620;52.472;21.028;2022-08-21T08:53:32;25.30;99.90
20921;DHT22;10620;52.472;21.028;2022-08-21T08:56:01;25.40;99.90
20921;DHT22;10620;52.472;21.028;2022-08-21T08:58:33;25.40;99.90
20921;DHT22;10620;52.472;21.028;2022-08-21T09:01:05;25.50;99.90
20921;DHT22;10620;52.472;21.028;2022-08-21T09:03:37;25.60;99.90
20921;DHT22;10620;52.472;21.028;2022-08-21T09:06:11;25.70;99.90
20921;DHT22;10620;52.472;21.028;2022-08-21T09:08:47;25.80;99.90
20921;DHT22;10620;52.472;21.028;2022-08-21T09:11:21;25.70;99.90
20921;DHT22;10620;52.472;21.028;2022-08-21T09:13:53;25.80;99.90
20921;DHT22;10620;52.472;21.028;2022-08-21T09:16:27;25.90;99.90
20921;DHT22;10620;52.472;21.028;2022-08-21T09:19:01;26.20;99.90
20921;DHT22;10620;52.472;21.028;2022-08-21T09:21:36;26.30;99.90
20921;DHT22;10620;52.472;21.028;2022-08-21T09:24:13;26.60;99.90
20921;DHT22;10620;52.472;21.028;2022-08-21T09:26:47;26.80;99.90
20921;DHT22;10620;52.472;21.028;2022-08-21T09:29:19;27.10;99.90
20921;DHT22;10620;52.472;21.028;2022-08-21T09:31:49;27.30;99.90
20921;DHT22;10620;52.472;21.028;2022-08-21T09:34:24;27.50;99.90
20921;DHT22;10620;52.472;21.028;2022-08-21T09:36:54;27.40;99.90
20921;DHT22;10620;52.472;21.028;2022-08-21T09:39:24;27.60;99.90
20921;DHT22;10620;52.472;21.028;2022-08-21T09:41:57;27.60;99.90
20921;DHT22;10620;52.472;21.028;2022-08-21T09:44:27;27.40;99.90
20921;DHT22;10620;52.472;21.028;2022-08-21T09:46:56;27.10;99.90
20921;DHT22;10620;52.472;21.028;2022-08-21T09:49:28;27.00;99.90
20921;DHT22;10620;52.472;21.028;2022-08-21T09:51:59;27.00;99.90
20921;DHT22;10620;52.472;21.028;2022-08-21T09:54:29;26.90;99.90
20921;DHT22;10620;52.472;21.028;2022-08-21T09:56:59;26.70;99.90
20921;DHT22;10620;52.472;21.028;2022-08-21T09:59:46;26.70;99.90
20921;DHT22;10620;52.472;21.028;2022-08-21T10:02:21;26.70;99.90
20921;DHT22;10620;52.472;21.028;2022-08-21T10:04:51;26.60;99.90
20921;DHT22;10620;52.472;21.028;2022-08-21T10:07:22;26.40;99.90
20921;DHT22;10620;52.472;21.028;2022-08-21T10:09:58;26.40;99.90
20921;DHT22;10620;52.472;21.028;2022-08-21T10:12:28;26.50;99.90
20921;DHT22;10620;52.472;21.028;2022-08-21T10:15:02;26.50;99.90
20921;DHT22;10620;52.472;21.028;2022-08-21T10:17:38;26.70;99.90
20921;DHT22;10620;52.472;21.028;2022-08-21T10:20:14;26.90;99.90
20921;DHT22;10620;52.472;21.028;2022-08-21T10:22:47;26.80;99.90
20921;DHT22;10620;52.472;21.028;2022-08-21T10:25:22;26.80;99.90
20921;DHT22;10620;52.472;21.028;2022-08-21T10:27:55;26.80;99.90
20921;DHT22;10620;52.472;21.028;2022-08-21T10:30:30;26.90;99.90
20921;DHT22;10620;52.472;21.028;2022-08-21T10:35:51;27.40;99.90
20921;DHT22;10620;52.472;21.028;2022-08-21T10:41:39;27.80;99.90
20921;DHT22;10620;52.472;21.028;2022-08-21T10:44:13;27.80;99.90
20921;DHT22;10620;52.472;21.028;2022-08-21T10:46:47;27.80;99.90
20921;DHT22;10620;52.472;21.028;2022-08-21T10:49:21;28.40;99.90
20921;DHT22;10620;52.472;21.028;2022-08-21T10:51:53;28.60;99.90
20921;DHT22;10620;52.472;21.028;2022-08-21T10:54:26;28.60;99.90
20921;DHT22;10620;52.472;21.028;2022-08-21T10:56:58;28.80;99.90
20921;DHT22;10620;52.472;21.028;2022-08-21T10:59:32;28.90;99.90
20921;DHT22;10620;52.472;21.028;2022-08-21T11:02:08;29.10;99.90
20921;DHT22;10620;52.472;21.028;2022-08-21T11:04:45;29.30;99.90
20921;DHT22;10620;52.472;21.028;2022-08-21T11:07:20;29.80;99.90
20921;DHT22;10620;52.472;21.028;2022-08-21T11:09:50;29.90;99.90
20921;DHT22;10620;52.472;21.028;2022-08-21T11:12:22;30.10;99.90
20921;DHT22;10620;52.472;21.028;2022-08-21T11:14:54;30.30;99.90
20921;DHT22;10620;52.472;21.028;2022-08-21T11:17:24;30.30;99.30
20921;DHT22;10620;52.472;21.028;2022-08-21T11:19:59;30.20;98.20
20921;DHT22;10620;52.472;21.028;2022-08-21T11:22:33;29.70;98.30
20921;DHT22;10620;52.472;21.028;2022-08-21T11:25:06;29.40;99.90
20921;DHT22;10620;52.472;21.028;2022-08-21T11:27:38;29.40;99.90
20921;DHT22;10620;52.472;21.028;2022-08-21T11:30:10;29.50;99.90
20921;DHT22;10620;52.472;21.028;2022-08-21T11:32:48;29.50;97.90
20921;DHT22;10620;52.472;21.028;2022-08-21T11:35:21;29.50;99.10
20921;DHT22;10620;52.472;21.028;2022-08-21T11:37:57;29.30;98.40
20921;DHT22;10620;52.472;21.028;2022-08-21T11:40:34;29.30;98.00
20921;DHT22;10620;52.472;21.028;2022-08-21T11:43:08;29.30;99.90
20921;DHT22;10620;52.472;21.028;2022-08-21T11:45:42;29.40;99.90
20921;DHT22;10620;52.472;21.028;2022-08-21T11:50:56;29.10;99.90
20921;DHT22;10620;52.472;21.028;2022-08-21T11:53:26;29.20;99.90
20921;DHT22;10620;52.472;21.028;2022-08-21T11:55:58;29.20;99.90
20921;DHT22;10620;52.472;21.028;2022-08-21T11:58:32;29.40;99.90
20921;DHT22;10620;52.472;21.028;2022-08-21T12:01:05;29.80;99.90
20921;DHT22;10620;52.472;21.028;2022-08-21T12:03:36;30.30;99.90
20921;DHT22;10620;52.472;21.028;2022-08-21T12:06:09;30.40;99.90
20921;DHT22;10620;52.472;21.028;2022-08-21T12:08:39;30.30;96.80
20921;DHT22;10620;52.472;21.028;2022-08-21T12:11:09;30.30;96.20
20921;DHT22;10620;52.472;21.028;2022-08-21T12:13:51;30.20;96.30
20921;DHT22;10620;52.472;21.028;2022-08-21T12:16:28;30.10;97.70
20921;DHT22;10620;52.472;21.028;2022-08-21T12:19:07;29.90;95.60
20921;DHT22;10620;52.472;21.028;2022-08-21T12:21:47;29.30;94.60
20921;DHT22;10620;52.472;21.028;2022-08-21T12:24:17;29.50;96.20
20921;DHT22;10620;52.472;21.028;2022-08-21T12:26:50;29.60;97.20
20921;DHT22;10620;52.472;21.028;2022-08-21T12:31:51;29.70;96.30
20921;DHT22;10620;52.472;21.028;2022-08-21T12:34:21;30.10;94.30
20921;DHT22;10620;52.472;21.028;2022-08-21T12:36:53;30.30;95.10
20921;DHT22;10620;52.472;21.028;2022-08-21T12:39:25;30.80;90.10
20921;DHT22;10620;52.472;21.028;2022-08-21T12:41:55;30.80;90.50
20921;DHT22;10620;52.472;21.028;2022-08-21T12:44:32;30.70;89.80
20921;DHT22;10620;52.472;21.028;2022-08-21T12:49:34;30.70;88.80
20921;DHT22;10620;52.472;21.028;2022-08-21T12:52:07;30.70;88.20
20921;DHT22;10620;52.472;21.028;2022-08-21T12:54:38;30.50;90.40
20921;DHT22;10620;52.472;21.028;2022-08-21T12:57:08;30.40;87.40
20921;DHT22;10620;52.472;21.028;2022-08-21T12:59:37;30.30;91.30
20921;DHT22;10620;52.472;21.028;2022-08-21T13:02:10;30.20;92.80
20921;DHT22;10620;52.472;21.028;2022-08-21T13:04:45;29.90;93.30
20921;DHT22;10620;52.472;21.028;2022-08-21T13:07:18;29.50;92.90
20921;DHT22;10620;52.472;21.028;2022-08-21T13:09:51;29.10;91.90
20921;DHT22;10620;52.472;21.028;2022-08-21T13:12:21;28.80;92.00
20921;DHT22;10620;52.472;21.028;2022-08-21T13:14:56;28.70;93.10
20921;DHT22;10620;52.472;21.028;2022-08-21T13:17:30;28.60;92.70
20921;DHT22;10620;52.472;21.028;2022-08-21T13:20:02;28.70;95.40
20921;DHT22;10620;52.472;21.028;2022-08-21T13:22:31;28.70;96.20
20921;DHT22;10620;52.472;21.028;2022-08-21T13:25:08;28.90;96.30
20921;DHT22;10620;52.472;21.028;2022-08-21T13:27:37;29.00;92.80
20921;DHT22;10620;52.472;21.028;2022-08-21T13:30:07;29.00;92.80
20921;DHT22;10620;52.472;21.028;2022-08-21T13:32:39;28.80;93.40
20921;DHT22;10620;52.472;21.028;2022-08-21T13:35:14;28.50;93.30
20921;DHT22;10620;52.472;21.028;2022-08-21T13:37:44;28.20;94.80
20921;DHT22;10620;52.472;21.028;2022-08-21T13:40:15;28.20;96.00
20921;DHT22;10620;52.472;21.028;2022-08-21T13:42:45;28.20;95.50
20921;DHT22;10620;52.472;21.028;2022-08-21T13:45:17;28.20;97.00
20921;DHT22;10620;52.472;21.028;2022-08-21T13:47:46;28.30;95.90
20921;DHT22;10620;52.472;21.028;2022-08-21T13:50:18;28.40;94.50
20921;DHT22;10620;52.472;21.028;2022-08-21T13:52:48;28.40;94.40
20921;DHT22;10620;52.472;21.028;2022-08-21T13:55:18;28.40;93.70
20921;DHT22;10620;52.472;21.028;2022-08-21T13:57:47;28.40;94.60
20921;DHT22;10620;52.472;21.028;2022-08-21T14:00:17;28.20;93.60
20921;DHT22;10620;52.472;21.028;2022-08-21T14:02:47;28.30;95.40
20921;DHT22;10620;52.472;21.028;2022-08-21T14:05:21;28.30;98.20
20921;DHT22;10620;52.472;21.028;2022-08-21T14:07:51;28.30;95.30
20921;DHT22;10620;52.472;21.028;2022-08-21T14:10:26;28.40;95.50
20921;DHT22;10620;52.472;21.028;2022-08-21T14:12:55;28.40;95.40
20921;DHT22;10620;52.472;21.028;2022-08-21T14:15:27;28.30;94.90
20921;DHT22;10620;52.472;21.028;2022-08-21T14:18:05;28.20;94.40
20921;DHT22;10620;52.472;21.028;2022-08-21T14:20:36;28.20;95.20
20921;DHT22;10620;52.472;21.028;2022-08-21T14:23:05;28.10;94.80
20921;DHT22;10620;52.472;21.028;2022-08-21T14:25:39;28.20;95.10
20921;DHT22;10620;52.472;21.028;2022-08-21T14:28:13;28.30;95.40
20921;DHT22;10620;52.472;21.028;2022-08-21T14:30:46;28.50;95.50
20921;DHT22;10620;52.472;21.028;2022-08-21T14:33:22;28.50;94.20
20921;DHT22;10620;52.472;21.028;2022-08-21T14:35:53;28.50;96.30
20921;DHT22;10620;52.472;21.028;2022-08-21T14:38:22;28.40;94.30
20921;DHT22;10620;52.472;21.028;2022-08-21T14:40:52;28.40;93.20
20921;DHT22;10620;52.472;21.028;2022-08-21T14:43:22;28.40;94.90
20921;DHT22;10620;52.472;21.028;2022-08-21T14:45:51;28.40;94.50
20921;DHT22;10620;52.472;21.028;2022-08-21T14:48:20;28.50;92.50
20921;DHT22;10620;52.472;21.028;2022-08-21T14:50:49;28.40;93.30
20921;DHT22;10620;52.472;21.028;2022-08-21T14:53:19;28.30;96.40
20921;DHT22;10620;52.472;21.028;2022-08-21T14:55:48;28.20;93.10
20921;DHT22;10620;52.472;21.028;2022-08-21T14:58:35;28.10;95.20
20921;DHT22;10620;52.472;21.028;2022-08-21T15:01:04;28.10;96.30
20921;DHT22;10620;52.472;21.028;2022-08-21T15:03:34;28.20;93.90
20921;DHT22;10620;52.472;21.028;2022-08-21T15:06:03;28.10;93.00
20921;DHT22;10620;52.472;21.028;2022-08-21T15:08:33;28.00;95.50
20921;DHT22;10620;52.472;21.028;2022-08-21T15:11:03;28.00;94.50
20921;DHT22;10620;52.472;21.028;2022-08-21T15:13:40;28.20;94.80
20921;DHT22;10620;52.472;21.028;2022-08-21T15:16:10;28.30;94.10
20921;DHT22;10620;52.472;21.028;2022-08-21T15:18:39;28.30;93.80
20921;DHT22;10620;52.472;21.028;2022-08-21T15:21:09;28.40;94.00
20921;DHT22;10620;52.472;21.028;2022-08-21T15:23:39;28.50;93.80
20921;DHT22;10620;52.472;21.028;2022-08-21T15:26:10;28.40;92.70
20921;DHT22;10620;52.472;21.028;2022-08-21T15:28:39;28.40;95.30
20921;DHT22;10620;52.472;21.028;2022-08-21T15:31:08;28.20;93.80
20921;DHT22;10620;52.472;21.028;2022-08-21T15:33:36;27.90;93.00
20921;DHT22;10620;52.472;21.028;2022-08-21T15:36:05;27.90;91.90
20921;DHT22;10620;52.472;21.028;2022-08-21T15:38:34;27.70;92.90
20921;DHT22;10620;52.472;21.028;2022-08-21T15:41:04;27.70;93.20
20921;DHT22;10620;52.472;21.028;2022-08-21T15:43:41;27.70;93.90
20921;DHT22;10620;52.472;21.028;2022-08-21T15:46:12;27.80;96.40
20921;DHT22;10620;52.472;21.028;2022-08-21T15:48:41;27.70;96.20
20921;DHT22;10620;52.472;21.028;2022-08-21T15:51:10;27.80;98.20